createdAt,value
2019-01-17T00:00:36.914Z,27.43
2019-01-17T00:03:33.058Z,28.57
2019-01-17T00:06:20.303Z,23.27
2019-01-17T00:09:15.172Z,26.37
2019-01-17T00:12:06.893Z,26.03
2019-01-17T00:14:58.616Z,28.03
2019-01-17T00:17:56.438Z,30.10
2019-01-17T00:20:43.992Z,23.30
2019-01-17T00:23:32.896Z,24.60
2019-01-17T00:26:13.664Z,28.13
2019-01-17T00:29:01.238Z,29.87
2019-01-17T00:31:51.169Z,31.90
2019-01-17T00:34:38.691Z,22.50
2019-01-17T00:37:19.492Z,26.40
2019-01-17T00:40:08.263Z,34.83
2019-01-17T00:42:57.047Z,26.83
2019-01-17T00:45:55.050Z,29.70
2019-01-17T00:48:49.635Z,28.03
2019-01-17T00:51:38.324Z,41.50
2019-01-17T00:54:20.309Z,39.43
2019-01-17T00:57:09.004Z,37.53
2019-01-17T00:59:53.991Z,48.63
2019-01-17T01:02:49.096Z,34.83
2019-01-17T01:05:28.775Z,35.20
2019-01-17T01:08:20.828Z,32.97
2019-01-17T01:11:12.301Z,33.40
2019-01-17T01:13:59.637Z,34.93
2019-01-17T01:17:07.564Z,34.70
2019-01-17T01:19:57.272Z,32.77
2019-01-17T01:22:46.079Z,35.67
2019-01-17T01:25:33.607Z,37.13
2019-01-17T01:28:19.715Z,27.77
2019-01-17T01:31:26.860Z,29.40
2019-01-17T01:34:24.793Z,29.97
2019-01-17T01:37:24.592Z,28.93
2019-01-17T01:40:14.308Z,29.10
2019-01-17T01:43:15.303Z,33.97
2019-01-17T01:46:02.707Z,30.27
2019-01-17T01:48:51.482Z,32.90
2019-01-17T01:51:49.516Z,31.00
2019-01-17T01:54:22.119Z,29.03
2019-01-17T01:56:51.263Z,24.90
2019-01-17T01:59:21.212Z,31.47
2019-01-17T02:01:51.062Z,30.87
2019-01-17T02:04:21.012Z,29.80
2019-01-17T02:06:50.888Z,27.97
2019-01-17T02:09:20.763Z,24.07
2019-01-17T02:11:50.616Z,32.43
2019-01-17T02:14:20.695Z,27.13
2019-01-17T02:16:50.551Z,32.37
2019-01-17T02:19:20.722Z,26.47
2019-01-17T02:21:50.686Z,24.63
2019-01-17T02:24:20.536Z,26.30
2019-01-17T02:26:50.370Z,24.87
2019-01-17T02:29:20.328Z,20.83
2019-01-17T02:31:50.176Z,27.00
2019-01-17T02:34:20.020Z,33.50
2019-01-17T02:36:49.970Z,29.33
2019-01-17T02:39:19.859Z,34.93
2019-01-17T02:41:49.714Z,31.67
2019-01-17T02:44:19.579Z,37.03
2019-01-17T02:46:49.584Z,24.03
2019-01-17T02:49:19.543Z,26.17
2019-01-17T02:51:49.458Z,30.20
2019-01-17T02:54:19.612Z,30.03
2019-01-17T02:56:49.459Z,28.77
2019-01-17T02:59:19.364Z,30.70
2019-01-17T03:01:49.220Z,28.77
2019-01-17T03:04:19.073Z,25.70
2019-01-17T03:06:48.947Z,28.47
2019-01-17T03:09:18.819Z,25.67
2019-01-17T03:11:48.673Z,35.03
2019-01-17T03:14:18.528Z,31.83
2019-01-17T03:16:48.380Z,30.07
2019-01-17T03:19:18.296Z,23.17
2019-01-17T03:21:48.129Z,24.20
2019-01-17T03:24:17.980Z,28.50
2019-01-17T03:26:48.011Z,29.23
2019-01-17T03:29:18.034Z,25.40
2019-01-17T03:31:47.905Z,25.80
2019-01-17T03:34:17.739Z,28.07
2019-01-17T03:36:47.575Z,23.73
2019-01-17T03:39:17.488Z,26.20
2019-01-17T03:41:47.346Z,25.17
2019-01-17T03:44:17.196Z,25.60
2019-01-17T03:46:47.075Z,30.40
2019-01-17T03:49:16.940Z,28.53
2019-01-17T03:51:46.799Z,25.80
2019-01-17T03:54:16.646Z,22.83
2019-01-17T03:56:46.508Z,22.53
2019-01-17T03:59:16.396Z,26.17
2019-01-17T04:01:46.315Z,32.10
2019-01-17T04:04:16.168Z,27.33
2019-01-17T04:06:46.029Z,25.83
2019-01-17T04:09:15.952Z,20.70
2019-01-17T04:11:45.818Z,25.13
2019-01-17T04:14:15.659Z,22.63
2019-01-17T04:16:45.537Z,28.30
2019-01-17T04:19:15.407Z,27.00
2019-01-17T04:21:45.265Z,21.67
2019-01-17T04:24:15.111Z,22.27
2019-01-17T04:26:44.950Z,22.00
2019-01-17T04:29:14.948Z,19.87
2019-01-17T04:31:44.959Z,24.10
2019-01-17T04:34:14.803Z,22.17
2019-01-17T04:36:44.672Z,26.50
2019-01-17T04:39:16.657Z,24.10
2019-01-17T04:41:46.630Z,22.87
2019-01-17T04:44:16.481Z,24.73
2019-01-17T04:46:46.324Z,22.13
2019-01-17T04:49:16.233Z,26.50
2019-01-17T04:51:46.087Z,22.80
2019-01-17T04:54:15.942Z,24.43
2019-01-17T04:56:45.776Z,24.30
2019-01-17T04:59:15.717Z,21.70
2019-01-17T05:01:45.577Z,25.87
2019-01-17T05:04:15.456Z,25.10
2019-01-17T05:06:45.354Z,23.93
2019-01-17T05:09:15.262Z,26.83
2019-01-17T05:11:45.140Z,27.13
2019-01-17T05:14:15.012Z,26.50
2019-01-17T05:16:44.903Z,22.70
2019-01-17T05:19:14.905Z,26.70
2019-01-17T05:21:44.772Z,20.13
2019-01-17T05:24:14.709Z,25.60
2019-01-17T05:26:44.563Z,27.10
2019-01-17T05:29:14.479Z,24.53
2019-01-17T05:31:44.575Z,25.47
2019-01-17T05:34:14.433Z,25.83
2019-01-17T05:36:44.324Z,24.83
2019-01-17T05:39:14.242Z,22.53
2019-01-17T05:41:44.124Z,22.03
2019-01-17T05:44:13.990Z,23.77
2019-01-17T05:46:43.846Z,26.23
2019-01-17T05:49:13.799Z,22.60
2019-01-17T05:51:43.669Z,25.87
2019-01-17T05:54:13.527Z,24.10
2019-01-17T05:56:43.399Z,24.73
2019-01-17T05:59:13.357Z,25.93
2019-01-17T06:01:43.228Z,20.37
2019-01-17T06:04:13.108Z,19.67
2019-01-17T06:06:43.099Z,22.57
2019-01-17T06:09:13.011Z,24.10
2019-01-17T06:11:42.968Z,22.87
2019-01-17T06:14:12.800Z,26.80
2019-01-17T06:16:42.656Z,32.10
2019-01-17T06:19:12.668Z,29.00
2019-01-17T06:21:42.548Z,31.13
2019-01-17T06:24:12.422Z,26.57
2019-01-17T06:26:42.378Z,27.90
2019-01-17T06:29:12.356Z,31.50
2019-01-17T06:31:42.657Z,24.97
2019-01-17T06:34:12.571Z,31.00
2019-01-17T06:36:42.438Z,34.10
2019-01-17T06:39:12.471Z,38.93
2019-01-17T06:41:42.338Z,36.07
2019-01-17T06:44:12.187Z,42.33
2019-01-17T06:46:42.191Z,65.47
2019-01-17T06:49:12.144Z,35.40
2019-01-17T06:51:42.037Z,34.93
2019-01-17T06:54:12.015Z,37.13
2019-01-17T06:56:41.864Z,37.97
2019-01-17T06:59:11.823Z,39.33
2019-01-17T07:01:41.703Z,42.77
2019-01-17T07:04:11.758Z,35.07
2019-01-17T07:06:41.632Z,36.47
2019-01-17T07:09:11.665Z,38.90
2019-01-17T07:11:41.521Z,30.77
2019-01-17T07:14:11.418Z,32.27
2019-01-17T07:16:41.284Z,30.80
2019-01-17T07:19:11.384Z,32.37
2019-01-17T07:21:41.272Z,26.77
2019-01-17T07:24:11.132Z,29.57
2019-01-17T07:26:41.010Z,25.90
2019-01-17T07:29:10.907Z,30.30
2019-01-17T07:31:41.000Z,33.23
2019-01-17T07:34:10.964Z,32.00
2019-01-17T07:36:40.856Z,31.50
2019-01-17T07:39:10.767Z,29.20
2019-01-17T07:41:40.890Z,37.60
2019-01-17T07:44:10.823Z,43.53
2019-01-17T07:46:40.683Z,36.47
2019-01-17T07:49:10.652Z,36.87
2019-01-17T07:51:40.626Z,32.30
2019-01-17T07:54:10.585Z,33.57
2019-01-17T07:56:40.440Z,33.43
2019-01-17T07:59:10.413Z,43.40
2019-01-17T08:01:40.276Z,32.83
2019-01-17T08:04:10.264Z,35.83
2019-01-17T08:06:40.262Z,34.20
2019-01-17T08:09:10.975Z,37.27
2019-01-17T08:11:40.844Z,38.93
2019-01-17T08:14:10.778Z,37.00
2019-01-17T08:16:40.643Z,32.10
2019-01-17T08:19:10.633Z,40.80
2019-01-17T08:21:40.585Z,82.80
2019-01-17T08:24:10.424Z,34.63
2019-01-17T08:26:40.269Z,34.40
2019-01-17T08:29:10.188Z,38.33
2019-01-17T08:31:40.060Z,42.20
2019-01-17T08:34:10.160Z,42.30
2019-01-17T08:36:40.136Z,63.30
2019-01-17T08:39:10.550Z,71.60
2019-01-17T08:41:40.447Z,51.43
2019-01-17T08:44:10.420Z,44.43
2019-01-17T08:46:40.339Z,39.67
2019-01-17T08:49:10.227Z,54.20
2019-01-17T08:51:40.107Z,43.47
2019-01-17T08:54:09.987Z,59.57
2019-01-17T08:56:39.888Z,53.53
2019-01-17T08:59:09.864Z,32.50
2019-01-17T09:01:39.807Z,31.63
2019-01-17T09:04:09.698Z,31.77
2019-01-17T09:06:39.583Z,41.60
2019-01-17T09:09:10.520Z,32.27
2019-01-17T09:11:40.526Z,33.30
2019-01-17T09:14:10.476Z,37.47
2019-01-17T09:16:40.372Z,27.50
2019-01-17T09:19:11.419Z,27.80
2019-01-17T09:21:41.372Z,31.13
2019-01-17T09:24:11.355Z,40.97
2019-01-17T09:26:41.324Z,41.57
2019-01-17T09:29:11.220Z,44.80
2019-01-17T09:31:41.132Z,53.83
2019-01-17T09:34:11.072Z,42.67
2019-01-17T09:36:41.125Z,41.53
2019-01-17T09:39:11.255Z,37.93
2019-01-17T09:41:41.128Z,44.00
2019-01-17T09:44:11.034Z,37.73
2019-01-17T09:46:40.884Z,48.70
2019-01-17T09:49:10.947Z,57.80
2019-01-17T09:51:40.905Z,49.30
2019-01-17T09:54:10.876Z,42.40
2019-01-17T09:56:40.757Z,39.47
2019-01-17T09:59:11.404Z,36.07
2019-01-17T10:01:41.722Z,36.20
2019-01-17T10:04:11.700Z,36.33
2019-01-17T10:06:41.693Z,39.77
2019-01-17T10:09:11.583Z,32.90
2019-01-17T10:11:41.564Z,33.87
2019-01-17T10:14:11.425Z,33.50
2019-01-17T10:16:51.620Z,49.73
2019-01-17T10:20:24.675Z,34.80
2019-01-17T10:23:44.769Z,25.57
2019-01-17T10:27:00.249Z,30.97
2019-01-17T10:30:06.816Z,29.77
2019-01-17T10:33:00.497Z,25.87
2019-01-17T10:35:59.824Z,27.63
2019-01-17T10:39:00.891Z,28.23
2019-01-17T10:42:07.644Z,30.27
2019-01-17T10:45:21.365Z,28.30
2019-01-17T10:48:51.364Z,30.93
2019-01-17T10:52:20.314Z,39.67
2019-01-17T10:55:23.047Z,34.40
2019-01-17T10:58:18.515Z,38.80
2019-01-17T11:01:18.150Z,36.60
2019-01-17T11:04:28.867Z,33.17
2019-01-17T11:07:49.090Z,37.13
2019-01-17T11:10:45.704Z,37.70
2019-01-17T11:14:05.675Z,36.37
2019-01-17T11:17:26.730Z,42.17
2019-01-17T11:20:29.086Z,42.50
2019-01-17T11:23:24.469Z,45.17
2019-01-17T11:26:37.293Z,34.57
2019-01-17T11:29:51.115Z,33.37
2019-01-17T11:32:34.722Z,33.87
2019-01-17T11:35:42.229Z,35.17
2019-01-17T11:39:10.924Z,36.07
2019-01-17T11:42:35.980Z,34.13
2019-01-17T11:45:45.404Z,34.77
2019-01-17T11:49:20.601Z,36.53
2019-01-17T11:52:17.140Z,41.67
2019-01-17T11:55:41.652Z,46.23
2019-01-17T11:58:35.573Z,41.90
2019-01-17T12:02:01.755Z,32.17
2019-01-17T12:04:36.392Z,40.10
2019-01-17T12:07:15.622Z,35.93
2019-01-17T12:09:45.499Z,39.87
2019-01-17T12:12:23.763Z,42.07
2019-01-17T12:14:56.285Z,37.47
2019-01-17T12:17:45.150Z,39.77
2019-01-17T12:20:15.401Z,43.20
2019-01-17T12:22:45.247Z,41.53
2019-01-17T12:25:15.136Z,42.13
2019-01-17T12:27:45.012Z,41.53
2019-01-17T12:30:16.259Z,45.67
2019-01-17T12:32:46.123Z,45.60
2019-01-17T12:35:16.002Z,43.10
2019-01-17T12:37:45.925Z,46.47
2019-01-17T12:40:16.670Z,49.47
2019-01-17T12:42:46.623Z,38.90
2019-01-17T12:45:16.603Z,43.10
2019-01-17T12:47:47.348Z,9.77
2019-01-17T12:50:19.380Z,7.33
2019-01-17T12:52:49.245Z,5.50
2019-01-17T12:55:19.429Z,5.30
2019-01-17T12:57:49.371Z,6.60
2019-01-17T13:00:21.196Z,22.50
2019-01-17T13:02:51.091Z,32.37
2019-01-17T13:05:21.002Z,23.07
2019-01-17T13:07:50.872Z,28.00
2019-01-17T13:10:20.851Z,25.77
2019-01-17T13:12:50.729Z,26.40
2019-01-17T13:15:20.681Z,24.20
2019-01-17T13:17:50.549Z,21.40
2019-01-17T13:20:20.571Z,18.20
2019-01-17T13:22:50.508Z,17.90
2019-01-17T13:25:21.876Z,13.07
2019-01-17T13:27:51.956Z,10.90
2019-01-17T13:30:23.651Z,7.83
2019-01-17T13:32:53.596Z,7.63
2019-01-17T13:35:23.434Z,10.50
2019-01-17T13:37:53.294Z,9.57
2019-01-17T13:40:24.080Z,15.67
2019-01-17T13:42:54.228Z,22.50
2019-01-17T13:45:24.124Z,15.50
2019-01-17T13:47:54.059Z,19.63
2019-01-17T13:50:24.045Z,20.43
2019-01-17T13:52:54.042Z,19.47
2019-01-17T13:55:24.008Z,24.10
2019-01-17T13:57:54.109Z,20.67
2019-01-17T14:00:24.663Z,19.27
2019-01-17T14:02:54.741Z,21.37
2019-01-17T14:05:24.611Z,16.77
2019-01-17T14:07:54.715Z,14.57
2019-01-17T14:10:24.709Z,12.97
2019-01-17T14:12:54.561Z,19.23
2019-01-17T14:15:28.115Z,17.60
2019-01-17T14:17:57.983Z,20.73
2019-01-17T14:20:27.991Z,17.67
2019-01-17T14:22:57.947Z,19.03
2019-01-17T14:25:27.924Z,18.07
2019-01-17T14:27:57.883Z,15.43
2019-01-17T14:30:30.332Z,13.47
2019-01-17T14:33:00.290Z,15.00
2019-01-17T14:35:30.251Z,12.93
2019-01-17T14:38:00.112Z,11.57
2019-01-17T14:40:29.971Z,15.00
2019-01-17T14:42:59.825Z,13.53
2019-01-17T14:45:29.836Z,13.00
2019-01-17T14:47:59.718Z,9.07
2019-01-17T14:50:31.882Z,8.80
2019-01-17T14:53:01.749Z,12.03
2019-01-17T14:55:31.664Z,8.57
2019-01-17T14:58:01.627Z,7.03
2019-01-17T15:00:33.615Z,7.20
2019-01-17T15:03:03.558Z,10.27
2019-01-17T15:05:33.419Z,8.43
2019-01-17T15:08:03.320Z,9.50
2019-01-17T15:10:41.443Z,8.10
2019-01-17T15:13:11.440Z,12.90
2019-01-17T15:15:41.500Z,9.80
2019-01-17T15:18:12.596Z,9.67
2019-01-17T15:20:42.671Z,11.50
2019-01-17T15:23:13.335Z,9.17
2019-01-17T15:25:43.182Z,9.13
2019-01-17T15:28:13.084Z,7.67
2019-01-17T15:30:42.959Z,7.60
2019-01-17T15:33:12.963Z,8.23
2019-01-17T15:35:43.616Z,6.03
2019-01-17T15:38:13.578Z,9.23
2019-01-17T15:40:43.492Z,7.40
2019-01-17T15:43:13.357Z,7.43
2019-01-17T15:45:43.457Z,6.53
2019-01-17T15:48:13.443Z,5.80
2019-01-17T15:50:43.413Z,6.20
2019-01-17T15:53:13.279Z,9.33
2019-01-17T15:55:43.190Z,6.67
2019-01-17T15:58:13.071Z,5.97
2019-01-17T16:00:43.031Z,5.80
2019-01-17T16:03:13.039Z,8.43
2019-01-17T16:05:42.969Z,6.23
2019-01-17T16:08:13.867Z,6.20
2019-01-17T16:10:43.728Z,6.83
2019-01-17T16:13:13.588Z,5.67
2019-01-17T16:15:43.459Z,7.33
2019-01-17T16:18:13.428Z,11.80
2019-01-17T16:20:43.544Z,10.10
2019-01-17T16:23:13.538Z,9.13
2019-01-17T16:25:43.494Z,8.00
2019-01-17T16:28:13.367Z,8.40
2019-01-17T16:30:43.239Z,12.37
2019-01-17T16:33:13.140Z,11.43
2019-01-17T16:35:43.000Z,8.17
2019-01-17T16:38:12.936Z,8.53
2019-01-17T16:40:42.883Z,9.40
2019-01-17T16:43:12.750Z,12.57
2019-01-17T16:45:42.616Z,10.60
2019-01-17T16:48:13.216Z,10.90
2019-01-17T16:50:43.259Z,10.27
2019-01-17T16:53:13.288Z,14.00
2019-01-17T16:55:43.189Z,12.30
2019-01-17T16:58:13.184Z,14.37
2019-01-17T17:00:45.213Z,16.73
2019-01-17T17:03:15.067Z,16.73
2019-01-17T17:05:44.999Z,17.80
2019-01-17T17:08:14.919Z,16.60
2019-01-17T17:10:44.764Z,20.10
2019-01-17T17:13:14.651Z,33.60
2019-01-17T17:15:44.532Z,23.90
2019-01-17T17:18:14.496Z,21.93
2019-01-17T17:20:44.427Z,25.00
2019-01-17T17:23:14.383Z,30.53
2019-01-17T17:25:44.274Z,24.83
2019-01-17T17:28:14.651Z,20.77
2019-01-17T17:30:44.590Z,30.37
2019-01-17T17:33:14.456Z,25.30
2019-01-17T17:35:44.364Z,26.40
2019-01-17T17:38:14.385Z,25.27
2019-01-17T17:40:44.264Z,30.13
2019-01-17T17:43:14.172Z,25.30
2019-01-17T17:45:44.051Z,21.47
2019-01-17T17:48:14.063Z,21.37
2019-01-17T17:50:44.133Z,16.77
2019-01-17T17:53:14.128Z,16.37
2019-01-17T17:55:44.283Z,21.67
2019-01-17T17:58:14.199Z,15.47
2019-01-17T18:00:51.422Z,16.30
2019-01-17T18:03:21.321Z,19.20
2019-01-17T18:05:51.331Z,26.93
2019-01-17T18:08:21.242Z,17.97
2019-01-17T18:10:51.091Z,16.43
2019-01-17T18:13:20.955Z,14.17
2019-01-17T18:15:50.807Z,13.90
2019-01-17T18:18:20.901Z,15.00
2019-01-17T18:20:51.204Z,19.47
2019-01-17T18:23:21.368Z,15.90
2019-01-17T18:25:51.708Z,15.37
2019-01-17T18:28:22.633Z,20.00
2019-01-17T18:30:52.524Z,20.30
2019-01-17T18:33:22.528Z,16.10
2019-01-17T18:35:52.393Z,17.97
2019-01-17T18:38:22.255Z,17.23
2019-01-17T18:40:54.192Z,16.23
2019-01-17T18:43:24.109Z,20.00
2019-01-17T18:45:54.105Z,15.20
2019-01-17T18:48:24.035Z,17.67
2019-01-17T18:50:54.426Z,17.83
2019-01-17T18:53:24.315Z,19.03
2019-01-17T18:55:54.583Z,17.27
2019-01-17T18:58:25.520Z,17.97
2019-01-17T19:00:55.401Z,24.10
2019-01-17T19:03:25.252Z,26.17
2019-01-17T19:05:55.124Z,23.47
2019-01-17T19:08:25.123Z,22.63
2019-01-17T19:10:55.159Z,22.70
2019-01-17T19:13:25.142Z,21.43
2019-01-17T19:15:54.984Z,23.33
2019-01-17T19:18:24.923Z,22.60
2019-01-17T19:20:54.876Z,25.67
2019-01-17T19:23:24.995Z,22.97
2019-01-17T19:25:54.873Z,23.37
2019-01-17T19:28:24.872Z,23.70
2019-01-17T19:30:54.816Z,20.47
2019-01-17T19:33:24.698Z,22.87
2019-01-17T19:35:54.568Z,23.73
2019-01-17T19:38:25.179Z,21.77
2019-01-17T19:40:55.056Z,20.43
2019-01-17T19:43:25.093Z,20.10
2019-01-17T19:45:55.163Z,24.90
2019-01-17T19:48:25.106Z,25.00
2019-01-17T19:50:55.021Z,22.77
2019-01-17T19:53:26.343Z,21.57
2019-01-17T19:55:56.363Z,17.10
2019-01-17T19:58:29.107Z,17.30
2019-01-17T20:00:58.512Z,19.03
2019-01-17T20:03:28.407Z,16.13
2019-01-17T20:05:58.278Z,13.67
2019-01-17T20:08:28.219Z,10.83
2019-01-17T20:10:58.711Z,8.77
2019-01-17T20:13:28.543Z,8.47
2019-01-17T20:15:58.798Z,11.27
2019-01-17T20:18:28.851Z,7.37
2019-01-17T20:20:58.834Z,12.87
2019-01-17T20:23:28.828Z,9.27
2019-01-17T20:25:58.924Z,8.47
2019-01-17T20:28:35.579Z,8.97
2019-01-17T20:31:02.095Z,11.13
2019-01-17T20:33:32.083Z,8.20
2019-01-17T20:36:02.739Z,9.77
2019-01-17T20:38:33.644Z,9.93
2019-01-17T20:41:03.635Z,8.83
2019-01-17T20:43:33.494Z,13.10
2019-01-17T20:46:03.423Z,10.87
2019-01-17T20:48:35.247Z,11.53
2019-01-17T20:51:05.244Z,11.97
2019-01-17T20:53:35.148Z,14.60
2019-01-17T20:56:05.015Z,13.60
2019-01-17T20:58:34.911Z,14.43
2019-01-17T21:01:55.122Z,16.17
2019-01-17T21:04:24.984Z,11.77
2019-01-17T21:06:55.034Z,16.63
2019-01-17T21:09:25.048Z,20.13
2019-01-17T21:12:02.805Z,14.97
2019-01-17T21:14:32.868Z,15.90
2019-01-17T21:17:02.756Z,19.27
2019-01-17T21:19:35.905Z,14.57
2019-01-17T21:22:05.910Z,14.87
2019-01-17T21:24:35.824Z,22.70
2019-01-17T21:27:05.730Z,26.63
2019-01-17T21:29:35.740Z,39.97
2019-01-17T21:32:05.650Z,31.00
2019-01-17T21:34:35.488Z,12.27
2019-01-17T21:37:05.468Z,17.93
2019-01-17T21:39:35.372Z,17.87
2019-01-17T21:42:05.330Z,8.87
2019-01-17T21:44:35.348Z,17.90
2019-01-17T21:47:05.296Z,20.50
2019-01-17T21:49:35.240Z,16.30
2019-01-17T21:52:05.300Z,21.47
2019-01-17T21:54:35.172Z,14.83
2019-01-17T21:57:05.126Z,47.77
2019-01-17T21:59:35.000Z,36.90
2019-01-17T22:02:05.094Z,31.73
2019-01-17T22:04:34.932Z,34.40
2019-01-17T22:07:04.888Z,28.50
2019-01-17T22:09:34.781Z,30.97
2019-01-17T22:12:04.755Z,40.37
2019-01-17T22:14:34.692Z,11.27
2019-01-17T22:17:04.690Z,31.73
2019-01-17T22:19:34.621Z,20.57
2019-01-17T22:22:04.588Z,13.37
2019-01-17T22:24:34.576Z,13.17
2019-01-17T22:27:04.652Z,11.83
2019-01-17T22:29:34.587Z,12.67
2019-01-17T22:32:04.652Z,33.07
2019-01-17T22:34:34.502Z,24.23
2019-01-17T22:37:04.462Z,19.07
2019-01-17T22:39:34.349Z,17.90
2019-01-17T22:42:04.618Z,8.77
2019-01-17T22:44:34.602Z,18.00
2019-01-17T22:47:04.400Z,16.20
2019-01-17T22:49:34.315Z,12.77
2019-01-17T22:52:04.685Z,10.27
2019-01-17T22:54:34.599Z,8.37
2019-01-17T22:57:04.595Z,10.87
2019-01-17T22:59:34.491Z,12.50
2019-01-17T23:02:05.252Z,17.47
2019-01-17T23:04:35.116Z,17.10
2019-01-17T23:07:05.051Z,21.60
2019-01-17T23:09:34.963Z,15.53
2019-01-17T23:12:04.863Z,13.03
2019-01-17T23:14:34.896Z,16.23
2019-01-17T23:17:05.051Z,12.13
2019-01-17T23:19:34.954Z,14.10
2019-01-17T23:22:04.923Z,16.63
2019-01-17T23:24:34.839Z,15.57
2019-01-17T23:27:04.863Z,15.77
2019-01-17T23:29:34.795Z,13.73
2019-01-17T23:32:04.758Z,15.17
2019-01-17T23:34:34.604Z,17.03
2019-01-17T23:37:04.591Z,11.90
2019-01-17T23:39:34.467Z,12.50
2019-01-17T23:42:04.727Z,14.03
2019-01-17T23:44:34.568Z,10.80
2019-01-17T23:47:04.504Z,15.40
2019-01-17T23:49:34.527Z,12.17
2019-01-17T23:52:04.640Z,10.07
2019-01-17T23:54:34.501Z,11.90
2019-01-17T23:57:04.450Z,12.23
2019-01-17T23:59:34.587Z,8.40
